sensor_id;sensor_type;location;lat;lon;timestamp;P1;P2;P0
60586;PMS5003;46419;48.876;18.054;2023-04-03T05:05:54;17;16;
60586;PMS5003;46419;48.876;18.054;2023-04-03T05:08:22;18;18;
60586;PMS5003;46419;48.876;18.054;2023-04-03T05:10:49;15;15;
60586;PMS5003;46419;48.876;18.054;2023-04-03T05:13:16;18;17;
60586;PMS5003;46419;48.876;18.054;2023-04-03T05:15:43;18;18;
60586;PMS5003;46419;48.876;18.054;2023-04-03T05:18:16;18;18;
60586;PMS5003;46419;48.876;18.054;2023-04-03T05:20:43;17;17;
60586;PMS5003;46419;48.876;18.054;2023-04-03T05:23:11;16;16;
60586;PMS5003;46419;48.876;18.054;2023-04-03T05:25:38;15;14;
60586;PMS5003;46419;48.876;18.054;2023-04-03T05:28:06;16;16;
60586;PMS5003;46419;48.876;18.054;2023-04-03T05:30:33;18;16;
60586;PMS5003;46419;48.876;18.054;2023-04-03T05:33:00;17;16;
60586;PMS5003;46419;48.876;18.054;2023-04-03T05:35:27;18;18;
60586;PMS5003;46419;48.876;18.054;2023-04-03T05:37:55;19;18;
60586;PMS5003;46419;48.876;18.054;2023-04-03T05:40:22;21;20;
60586;PMS5003;46419;48.876;18.054;2023-04-03T05:42:49;21;20;
60586;PMS5003;46419;48.876;18.054;2023-04-03T05:45:16;23;22;
60586;PMS5003;46419;48.876;18.054;2023-04-03T05:47:43;19;19;
60586;PMS5003;46419;48.876;18.054;2023-04-03T05:50:10;17;17;
60586;PMS5003;46419;48.876;18.054;2023-04-03T05:52:38;22;22;
60586;PMS5003;46419;48.876;18.054;2023-04-03T05:55:09;24;24;
60586;PMS5003;46419;48.876;18.054;2023-04-03T05:57:37;24;22;
60586;PMS5003;46419;48.876;18.054;2023-04-03T06:00:04;22;21;
60586;PMS5003;46419;48.876;18.054;2023-04-03T06:02:32;23;23;
60586;PMS5003;46419;48.876;18.054;2023-04-03T06:04:59;24;20;
60586;PMS5003;46419;48.876;18.054;2023-04-03T06:07:27;23;21;
60586;PMS5003;46419;48.876;18.054;2023-04-03T06:09:55;22;22;
60586;PMS5003;46419;48.876;18.054;2023-04-03T06:12:23;20;19;
60586;PMS5003;46419;48.876;18.054;2023-04-03T06:14:50;20;20;
60586;PMS5003;46419;48.876;18.054;2023-04-03T06:17:17;23;23;
60586;PMS5003;46419;48.876;18.054;2023-04-03T06:19:44;24;23;
60586;PMS5003;46419;48.876;18.054;2023-04-03T06:22:12;20;20;
60586;PMS5003;46419;48.876;18.054;2023-04-03T06:24:40;24;23;
60586;PMS5003;46419;48.876;18.054;2023-04-03T06:27:08;20;19;
60586;PMS5003;46419;48.876;18.054;2023-04-03T06:29:37;23;21;
60586;PMS5003;46419;48.876;18.054;2023-04-03T06:32:04;20;20;
60586;PMS5003;46419;48.876;18.054;2023-04-03T06:34:31;19;18;
60586;PMS5003;46419;48.876;18.054;2023-04-03T06:36:59;19;18;
60586;PMS5003;46419;48.876;18.054;2023-04-03T06:39:27;21;19;
60586;PMS5003;46419;48.876;18.054;2023-04-03T06:41:54;21;20;
60586;PMS5003;46419;48.876;18.054;2023-04-03T06:44:21;21;21;
60586;PMS5003;46419;48.876;18.054;2023-04-03T06:46:49;16;15;
60586;PMS5003;46419;48.876;18.054;2023-04-03T06:49:16;20;20;
60586;PMS5003;46419;48.876;18.054;2023-04-03T06:51:43;21;20;
60586;PMS5003;46419;48.876;18.054;2023-04-03T06:54:10;18;16;
60586;PMS5003;46419;48.876;18.054;2023-04-03T06:56:37;17;16;
60586;PMS5003;46419;48.876;18.054;2023-04-03T06:59:04;19;17;
60586;PMS5003;46419;48.876;18.054;2023-04-03T07:01:31;18;17;
60586;PMS5003;46419;48.876;18.054;2023-04-03T07:03:58;17;16;
60586;PMS5003;46419;48.876;18.054;2023-04-03T07:06:26;17;15;
60586;PMS5003;46419;48.876;18.054;2023-04-03T07:08:54;15;15;
60586;PMS5003;46419;48.876;18.054;2023-04-03T07:11:21;14;13;
60586;PMS5003;46419;48.876;18.054;2023-04-03T07:13:49;17;17;
60586;PMS5003;46419;48.876;18.054;2023-04-03T07:16:16;13;13;
60586;PMS5003;46419;48.876;18.054;2023-04-03T07:18:45;16;15;
60586;PMS5003;46419;48.876;18.054;2023-04-03T07:21:14;12;12;
60586;PMS5003;46419;48.876;18.054;2023-04-03T07:23:46;13;13;
60586;PMS5003;46419;48.876;18.054;2023-04-03T07:26:27;15;15;
60586;PMS5003;46419;48.876;18.054;2023-04-03T07:28:54;22;21;
60586;PMS5003;46419;48.876;18.054;2023-04-03T07:31:21;16;13;
60586;PMS5003;46419;48.876;18.054;2023-04-03T07:33:48;15;14;
60586;PMS5003;46419;48.876;18.054;2023-04-03T07:36:17;14;14;
60586;PMS5003;46419;48.876;18.054;2023-04-03T07:38:46;13;13;
60586;PMS5003;46419;48.876;18.054;2023-04-03T07:41:13;14;14;
60586;PMS5003;46419;48.876;18.054;2023-04-03T07:43:42;15;14;
60586;PMS5003;46419;48.876;18.054;2023-04-03T07:46:09;10;10;
60586;PMS5003;46419;48.876;18.054;2023-04-03T07:48:37;13;12;
60586;PMS5003;46419;48.876;18.054;2023-04-03T07:51:04;13;12;
60586;PMS5003;46419;48.876;18.054;2023-04-03T07:53:32;17;17;
60586;PMS5003;46419;48.876;18.054;2023-04-03T07:55:59;13;13;
60586;PMS5003;46419;48.876;18.054;2023-04-03T07:58:27;14;14;
60586;PMS5003;46419;48.876;18.054;2023-04-03T08:00:54;14;14;
60586;PMS5003;46419;48.876;18.054;2023-04-03T08:03:21;14;12;
60586;PMS5003;46419;48.876;18.054;2023-04-03T08:05:48;14;13;
60586;PMS5003;46419;48.876;18.054;2023-04-03T08:08:17;13;13;
60586;PMS5003;46419;48.876;18.054;2023-04-03T08:10:48;10;10;
60586;PMS5003;46419;48.876;18.054;2023-04-03T08:13:16;14;13;
60586;PMS5003;46419;48.876;18.054;2023-04-03T08:15:44;15;15;
60586;PMS5003;46419;48.876;18.054;2023-04-03T08:18:11;11;11;
60586;PMS5003;46419;48.876;18.054;2023-04-03T08:20:38;12;12;
60586;PMS5003;46419;48.876;18.054;2023-04-03T08:23:06;13;13;
60586;PMS5003;46419;48.876;18.054;2023-04-03T08:25:33;13;12;
60586;PMS5003;46419;48.876;18.054;2023-04-03T08:28:03;11;11;
60586;PMS5003;46419;48.876;18.054;2023-04-03T08:30:31;12;11;
60586;PMS5003;46419;48.876;18.054;2023-04-03T08:33:00;14;12;
60586;PMS5003;46419;48.876;18.054;2023-04-03T08:35:27;16;16;
60586;PMS5003;46419;48.876;18.054;2023-04-03T08:37:55;11;11;
60586;PMS5003;46419;48.876;18.054;2023-04-03T08:40:23;12;12;
60586;PMS5003;46419;48.876;18.054;2023-04-03T08:42:54;13;13;
60586;PMS5003;46419;48.876;18.054;2023-04-03T08:45:33;15;15;
60586;PMS5003;46419;48.876;18.054;2023-04-03T08:48:12;13;11;
60586;PMS5003;46419;48.876;18.054;2023-04-03T08:50:44;12;12;
60586;PMS5003;46419;48.876;18.054;2023-04-03T08:53:16;14;12;
60586;PMS5003;46419;48.876;18.054;2023-04-03T08:55:45;11;11;
60586;PMS5003;46419;48.876;18.054;2023-04-03T08:58:15;12;11;
60586;PMS5003;46419;48.876;18.054;2023-04-03T09:00:45;14;14;
60586;PMS5003;46419;48.876;18.054;2023-04-03T09:03:17;12;12;
60586;PMS5003;46419;48.876;18.054;2023-04-03T09:05:47;9;8;
60586;PMS5003;46419;48.876;18.054;2023-04-03T09:08:21;9;9;
60586;PMS5003;46419;48.876;18.054;2023-04-03T09:10:52;10;10;
60586;PMS5003;46419;48.876;18.054;2023-04-03T09:13:33;10;10;
60586;PMS5003;46419;48.876;18.054;2023-04-03T09:16:14;11;10;
60586;PMS5003;46419;48.876;18.054;2023-04-03T09:18:53;11;9;
60586;PMS5003;46419;48.876;18.054;2023-04-03T09:21:31;10;10;
60586;PMS5003;46419;48.876;18.054;2023-04-03T09:24:03;7;7;
60586;PMS5003;46419;48.876;18.054;2023-04-03T09:26:34;11;11;
60586;PMS5003;46419;48.876;18.054;2023-04-03T09:29:06;15;15;
60586;PMS5003;46419;48.876;18.054;2023-04-03T09:31:36;11;11;
60586;PMS5003;46419;48.876;18.054;2023-04-03T09:34:07;10;10;
60586;PMS5003;46419;48.876;18.054;2023-04-03T09:36:43;12;12;
60586;PMS5003;46419;48.876;18.054;2023-04-03T09:39:14;11;11;
60586;PMS5003;46419;48.876;18.054;2023-04-03T09:41:54;9;9;
60586;PMS5003;46419;48.876;18.054;2023-04-03T09:44:26;10;10;
60586;PMS5003;46419;48.876;18.054;2023-04-03T09:46:55;12;12;
60586;PMS5003;46419;48.876;18.054;2023-04-03T09:49:22;12;12;
60586;PMS5003;46419;48.876;18.054;2023-04-03T09:51:50;10;10;
60586;PMS5003;46419;48.876;18.054;2023-04-03T09:54:25;10;10;
60586;PMS5003;46419;48.876;18.054;2023-04-03T09:57:04;12;12;
60586;PMS5003;46419;48.876;18.054;2023-04-03T09:59:36;12;12;
60586;PMS5003;46419;48.876;18.054;2023-04-03T10:02:18;12;10;
60586;PMS5003;46419;48.876;18.054;2023-04-03T10:04:54;10;10;
60586;PMS5003;46419;48.876;18.054;2023-04-03T10:07:30;10;9;
60586;PMS5003;46419;48.876;18.054;2023-04-03T10:10:00;12;12;
60586;PMS5003;46419;48.876;18.054;2023-04-03T10:12:30;9;9;
60586;PMS5003;46419;48.876;18.054;2023-04-03T10:14:58;11;11;
60586;PMS5003;46419;48.876;18.054;2023-04-03T10:17:31;10;10;
60586;PMS5003;46419;48.876;18.054;2023-04-03T10:20:13;13;11;
60586;PMS5003;46419;48.876;18.054;2023-04-03T10:22:56;10;9;
60586;PMS5003;46419;48.876;18.054;2023-04-03T10:25:32;8;8;
60586;PMS5003;46419;48.876;18.054;2023-04-03T10:28:08;8;8;
60586;PMS5003;46419;48.876;18.054;2023-04-03T10:30:46;11;10;
60586;PMS5003;46419;48.876;18.054;2023-04-03T10:33:25;11;10;
60586;PMS5003;46419;48.876;18.054;2023-04-03T10:36:06;10;9;
60586;PMS5003;46419;48.876;18.054;2023-04-03T10:38:41;10;10;
60586;PMS5003;46419;48.876;18.054;2023-04-03T10:41:16;15;11;
60586;PMS5003;46419;48.876;18.054;2023-04-03T10:43:54;10;10;
60586;PMS5003;46419;48.876;18.054;2023-04-03T10:46:33;11;11;
60586;PMS5003;46419;48.876;18.054;2023-04-03T10:49:10;11;10;
60586;PMS5003;46419;48.876;18.054;2023-04-03T10:51:48;12;12;
60586;PMS5003;46419;48.876;18.054;2023-04-03T10:54:23;9;9;
60586;PMS5003;46419;48.876;18.054;2023-04-03T10:56:52;9;9;
60586;PMS5003;46419;48.876;18.054;2023-04-03T10:59:29;9;9;
60586;PMS5003;46419;48.876;18.054;2023-04-03T11:02:06;9;9;
60586;PMS5003;46419;48.876;18.054;2023-04-03T11:04:41;8;8;
60586;PMS5003;46419;48.876;18.054;2023-04-03T11:07:12;9;9;
60586;PMS5003;46419;48.876;18.054;2023-04-03T11:09:44;8;8;
60586;PMS5003;46419;48.876;18.054;2023-04-03T11:12:15;12;11;
60586;PMS5003;46419;48.876;18.054;2023-04-03T11:14:47;13;13;
60586;PMS5003;46419;48.876;18.054;2023-04-03T11:17:22;11;10;
60586;PMS5003;46419;48.876;18.054;2023-04-03T11:19:58;10;10;
60586;PMS5003;46419;48.876;18.054;2023-04-03T11:22:29;9;8;
60586;PMS5003;46419;48.876;18.054;2023-04-03T11:25:02;9;9;
60586;PMS5003;46419;48.876;18.054;2023-04-03T11:27:35;9;9;
60586;PMS5003;46419;48.876;18.054;2023-04-03T11:30:09;9;9;
60586;PMS5003;46419;48.876;18.054;2023-04-03T11:32:56;13;12;
60586;PMS5003;46419;48.876;18.054;2023-04-03T11:35:42;11;11;
60586;PMS5003;46419;48.876;18.054;2023-04-03T11:38:14;13;13;
60586;PMS5003;46419;48.876;18.054;2023-04-03T11:40:47;10;10;
60586;PMS5003;46419;48.876;18.054;2023-04-03T11:43:20;10;9;
60586;PMS5003;46419;48.876;18.054;2023-04-03T11:45:51;12;12;
60586;PMS5003;46419;48.876;18.054;2023-04-03T11:49:10;11;11;
60586;PMS5003;46419;48.876;18.054;2023-04-03T11:52:53;10;10;
60586;PMS5003;46419;48.876;18.054;2023-04-03T11:56:29;10;10;
60586;PMS5003;46419;48.876;18.054;2023-04-03T11:59:16;8;8;
60586;PMS5003;46419;48.876;18.054;2023-04-03T12:01:50;8;8;
60586;PMS5003;46419;48.876;18.054;2023-04-03T12:04:18;10;9;
60586;PMS5003;46419;48.876;18.054;2023-04-03T12:06:58;9;8;
60586;PMS5003;46419;48.876;18.054;2023-04-03T12:09:31;10;10;
60586;PMS5003;46419;48.876;18.054;2023-04-03T12:12:23;8;8;
60586;PMS5003;46419;48.876;18.054;2023-04-03T12:14:55;9;9;
60586;PMS5003;46419;48.876;18.054;2023-04-03T12:17:38;8;8;
60586;PMS5003;46419;48.876;18.054;2023-04-03T12:20:24;11;9;
60586;PMS5003;46419;48.876;18.054;2023-04-03T12:23:28;6;6;
60586;PMS5003;46419;48.876;18.054;2023-04-03T12:26:02;8;7;
60586;PMS5003;46419;48.876;18.054;2023-04-03T12:28:45;6;5;
60586;PMS5003;46419;48.876;18.054;2023-04-03T12:31:12;6;6;
60586;PMS5003;46419;48.876;18.054;2023-04-03T12:33:47;5;5;
60586;PMS5003;46419;48.876;18.054;2023-04-03T12:36:45;5;5;
60586;PMS5003;46419;48.876;18.054;2023-04-03T12:39:26;7;7;
60586;PMS5003;46419;48.876;18.054;2023-04-03T12:42:11;7;6;
60586;PMS5003;46419;48.876;18.054;2023-04-03T12:44:51;7;7;
60586;PMS5003;46419;48.876;18.054;2023-04-03T12:47:27;7;6;
60586;PMS5003;46419;48.876;18.054;2023-04-03T12:50:00;6;6;
60586;PMS5003;46419;48.876;18.054;2023-04-03T12:52:32;5;5;
60586;PMS5003;46419;48.876;18.054;2023-04-03T12:55:03;4;4;
60586;PMS5003;46419;48.876;18.054;2023-04-03T12:57:43;5;5;
60586;PMS5003;46419;48.876;18.054;2023-04-03T13:00:20;6;6;
60586;PMS5003;46419;48.876;18.054;2023-04-03T13:02:54;5;5;
60586;PMS5003;46419;48.876;18.054;2023-04-03T13:05:21;4;4;
60586;PMS5003;46419;48.876;18.054;2023-04-03T13:07:52;6;6;
60586;PMS5003;46419;48.876;18.054;2023-04-03T13:10:24;5;4;
60586;PMS5003;46419;48.876;18.054;2023-04-03T13:12:52;5;4;
60586;PMS5003;46419;48.876;18.054;2023-04-03T13:15:23;4;4;
60586;PMS5003;46419;48.876;18.054;2023-04-03T13:17:52;4;4;
60586;PMS5003;46419;48.876;18.054;2023-04-03T13:20:22;3;3;
60586;PMS5003;46419;48.876;18.054;2023-04-03T13:22:53;5;4;
60586;PMS5003;46419;48.876;18.054;2023-04-03T13:25:23;4;3;
60586;PMS5003;46419;48.876;18.054;2023-04-03T13:27:53;5;5;
60586;PMS5003;46419;48.876;18.054;2023-04-03T13:30:24;4;4;
60586;PMS5003;46419;48.876;18.054;2023-04-03T13:32:55;5;5;
60586;PMS5003;46419;48.876;18.054;2023-04-03T13:35:25;4;4;
60586;PMS5003;46419;48.876;18.054;2023-04-03T13:37:58;5;5;
60586;PMS5003;46419;48.876;18.054;2023-04-03T13:40:29;7;6;
60586;PMS5003;46419;48.876;18.054;2023-04-03T13:42:58;6;5;
60586;PMS5003;46419;48.876;18.054;2023-04-03T13:45:29;6;6;
60586;PMS5003;46419;48.876;18.054;2023-04-03T13:48:08;6;6;
60586;PMS5003;46419;48.876;18.054;2023-04-03T13:50:59;3;3;
60586;PMS5003;46419;48.876;18.054;2023-04-03T13:53:30;3;3;
60586;PMS5003;46419;48.876;18.054;2023-04-03T13:56:05;7;6;
60586;PMS5003;46419;48.876;18.054;2023-04-03T13:58:35;4;4;
60586;PMS5003;46419;48.876;18.054;2023-04-03T14:01:09;4;4;
60586;PMS5003;46419;48.876;18.054;2023-04-03T14:03:43;6;6;
60586;PMS5003;46419;48.876;18.054;2023-04-03T14:06:12;6;6;
60586;PMS5003;46419;48.876;18.054;2023-04-03T14:08:43;5;5;
60586;PMS5003;46419;48.876;18.054;2023-04-03T14:11:12;6;5;
60586;PMS5003;46419;48.876;18.054;2023-04-03T14:13:41;7;6;
60586;PMS5003;46419;48.876;18.054;2023-04-03T14:16:12;5;5;
60586;PMS5003;46419;48.876;18.054;2023-04-03T14:18:41;5;5;
60586;PMS5003;46419;48.876;18.054;2023-04-03T14:21:09;7;6;
60586;PMS5003;46419;48.876;18.054;2023-04-03T14:23:39;4;4;
60586;PMS5003;46419;48.876;18.054;2023-04-03T14:26:08;6;5;
60586;PMS5003;46419;48.876;18.054;2023-04-03T14:28:38;6;5;
60586;PMS5003;46419;48.876;18.054;2023-04-03T14:31:06;5;5;
60586;PMS5003;46419;48.876;18.054;2023-04-03T14:33:33;8;7;
60586;PMS5003;46419;48.876;18.054;2023-04-03T14:36:00;7;6;
60586;PMS5003;46419;48.876;18.054;2023-04-03T14:38:28;5;5;
60586;PMS5003;46419;48.876;18.054;2023-04-03T14:40:57;6;6;
60586;PMS5003;46419;48.876;18.054;2023-04-03T14:43:25;5;5;
60586;PMS5003;46419;48.876;18.054;2023-04-03T14:45:52;7;5;
60586;PMS5003;46419;48.876;18.054;2023-04-03T14:48:22;6;5;
60586;PMS5003;46419;48.876;18.054;2023-04-03T14:50:53;6;6;
60586;PMS5003;46419;48.876;18.054;2023-04-03T14:53:20;5;5;
60586;PMS5003;46419;48.876;18.054;2023-04-03T14:55:48;4;4;
60586;PMS5003;46419;48.876;18.054;2023-04-03T14:58:17;7;7;
60586;PMS5003;46419;48.876;18.054;2023-04-03T15:00:45;5;5;
60586;PMS5003;46419;48.876;18.054;2023-04-03T15:03:14;8;7;
60586;PMS5003;46419;48.876;18.054;2023-04-03T15:05:43;5;5;
60586;PMS5003;46419;48.876;18.054;2023-04-03T15:08:16;6;6;
60586;PMS5003;46419;48.876;18.054;2023-04-03T15:10:46;6;6;
60586;PMS5003;46419;48.876;18.054;2023-04-03T15:13:14;8;8;
60586;PMS5003;46419;48.876;18.054;2023-04-03T15:15:42;6;5;
60586;PMS5003;46419;48.876;18.054;2023-04-03T15:18:13;7;6;
60586;PMS5003;46419;48.876;18.054;2023-04-03T15:20:43;4;4;
60586;PMS5003;46419;48.876;18.054;2023-04-03T15:23:11;8;8;
60586;PMS5003;46419;48.876;18.054;2023-04-03T15:25:39;9;8;
60586;PMS5003;46419;48.876;18.054;2023-04-03T15:28:08;7;7;
60586;PMS5003;46419;48.876;18.054;2023-04-03T15:30:38;6;6;
60586;PMS5003;46419;48.876;18.054;2023-04-03T15:33:06;6;6;
60586;PMS5003;46419;48.876;18.054;2023-04-03T15:35:33;7;6;
60586;PMS5003;46419;48.876;18.054;2023-04-03T15:38:00;8;7;
60586;PMS5003;46419;48.876;18.054;2023-04-03T15:40:27;6;6;
60586;PMS5003;46419;48.876;18.054;2023-04-03T15:42:55;6;6;
60586;PMS5003;46419;48.876;18.054;2023-04-03T15:45:22;7;7;
60586;PMS5003;46419;48.876;18.054;2023-04-03T15:47:50;10;10;
60586;PMS5003;46419;48.876;18.054;2023-04-03T15:50:18;6;6;
60586;PMS5003;46419;48.876;18.054;2023-04-03T15:52:45;7;7;
60586;PMS5003;46419;48.876;18.054;2023-04-03T15:55:12;6;6;
60586;PMS5003;46419;48.876;18.054;2023-04-03T15:57:39;9;8;
60586;PMS5003;46419;48.876;18.054;2023-04-03T16:00:07;7;6;
60586;PMS5003;46419;48.876;18.054;2023-04-03T16:02:35;7;7;
60586;PMS5003;46419;48.876;18.054;2023-04-03T16:05:03;8;7;
60586;PMS5003;46419;48.876;18.054;2023-04-03T16:07:31;7;7;
60586;PMS5003;46419;48.876;18.054;2023-04-03T16:09:58;7;7;
60586;PMS5003;46419;48.876;18.054;2023-04-03T16:12:25;7;7;
60586;PMS5003;46419;48.876;18.054;2023-04-03T16:14:52;5;5;
60586;PMS5003;46419;48.876;18.054;2023-04-03T16:17:20;6;6;
60586;PMS5003;46419;48.876;18.054;2023-04-03T16:19:47;7;7;
60586;PMS5003;46419;48.876;18.054;2023-04-03T16:22:15;9;7;
60586;PMS5003;46419;48.876;18.054;2023-04-03T16:24:42;8;8;
60586;PMS5003;46419;48.876;18.054;2023-04-03T16:27:09;7;7;
60586;PMS5003;46419;48.876;18.054;2023-04-03T16:29:36;7;7;
60586;PMS5003;46419;48.876;18.054;2023-04-03T16:32:03;9;8;
60586;PMS5003;46419;48.876;18.054;2023-04-03T16:34:31;7;7;
60586;PMS5003;46419;48.876;18.054;2023-04-03T16:36:59;9;9;
60586;PMS5003;46419;48.876;18.054;2023-04-03T16:39:27;8;7;
60586;PMS5003;46419;48.876;18.054;2023-04-03T16:41:54;7;7;
60586;PMS5003;46419;48.876;18.054;2023-04-03T16:44:22;9;7;
60586;PMS5003;46419;48.876;18.054;2023-04-03T16:46:49;9;7;
60586;PMS5003;46419;48.876;18.054;2023-04-03T16:49:17;8;7;
60586;PMS5003;46419;48.876;18.054;2023-04-03T16:51:44;7;7;
60586;PMS5003;46419;48.876;18.054;2023-04-03T16:54:13;10;10;
60586;PMS5003;46419;48.876;18.054;2023-04-03T16:56:56;8;8;
60586;PMS5003;46419;48.876;18.054;2023-04-03T16:59:24;9;9;
60586;PMS5003;46419;48.876;18.054;2023-04-03T17:01:51;10;10;
60586;PMS5003;46419;48.876;18.054;2023-04-03T17:04:18;8;7;
60586;PMS5003;46419;48.876;18.054;2023-04-03T17:06:45;9;9;
60586;PMS5003;46419;48.876;18.054;2023-04-03T17:09:12;8;8;
60586;PMS5003;46419;48.876;18.054;2023-04-03T17:11:40;9;8;
60586;PMS5003;46419;48.876;18.054;2023-04-03T17:14:07;10;10;
60586;PMS5003;46419;48.876;18.054;2023-04-03T17:16:35;7;6;
60586;PMS5003;46419;48.876;18.054;2023-04-03T17:19:04;7;7;
60586;PMS5003;46419;48.876;18.054;2023-04-03T17:21:32;14;13;
60586;PMS5003;46419;48.876;18.054;2023-04-03T17:24:01;10;10;
60586;PMS5003;46419;48.876;18.054;2023-04-03T17:26:31;13;13;
60586;PMS5003;46419;48.876;18.054;2023-04-03T17:28:59;10;10;
60586;PMS5003;46419;48.876;18.054;2023-04-03T17:31:26;10;10;
60586;PMS5003;46419;48.876;18.054;2023-04-03T17:33:53;10;8;
60586;PMS5003;46419;48.876;18.054;2023-04-03T17:36:20;11;11;
60586;PMS5003;46419;48.876;18.054;2023-04-03T17:38:49;11;11;
